PWSweather.com
Personal Weather Stations
Station Observations
METEOTORRE
Torrevecchia TeatinaIT

Torrevecchia TeatinaIT

Lat: 42.394, Lon: 14.215

Elevation: 688

Station Type: Davis VP2

Latest ConditionsUpdated 6:15:05 AM GMT+01:01 Thursday, Jun 27, 2019
Currently Today's Max Today's Min Today's Average
Temperature 78.2°F25.7°C 78.2°F25.7°C 75.5°F24.2°C 76.6°F24.8°C
Dew Point 62.6°F17.0°C 65.8°F18.8°C 62.5°F16.9°C 63.6°F17.6°C
Winds 5.0 mph WSW8.0 kmh WSW 10.0 mph -16.1 kmh - - 6.0 mph 9.7 kmh
Wind Gusts 10.0 mph16.1 kmh 13.0 mph20.9 kmh - -
Humidity 59% 70% 59% 64%
Pressure 30.10 in1019.3 mb 30.12 in1020.0 mb 30.09 in1019.0 mb -
Hour Temp Dew Point Humidity Winds Wind Gusts Pressure Precip Precip Rate Daily Precip Total
06:15 AM 78.2°F25.7°C 62.6°F17.0°C 59% 5.0 mph WSW8.0 kmh WSW 10.0 mph16.1 kmh 30.10 in1019.3 mb 0.00 in0.0 mm 0.00 in0.0 mm 0.00 in0.0 mm
06:10 AM 78.1°F25.6°C 63.0°F17.2°C 60% 9.0 mph WSW14.5 kmh WSW 10.0 mph16.1 kmh 30.09 in1019.0 mb 0.00 in0.0 mm 0.00 in0.0 mm 0.00 in0.0 mm
06:05 AM 78.0°F25.6°C 62.9°F17.2°C 60% 4.0 mph WSW6.4 kmh WSW 9.0 mph14.5 kmh 30.09 in1019.0 mb 0.00 in0.0 mm 0.00 in0.0 mm 0.00 in0.0 mm
06:00 AM 77.9°F25.5°C 62.8°F17.1°C 60% 6.0 mph WSW9.7 kmh WSW 10.0 mph16.1 kmh 30.09 in1019.0 mb 0.00 in0.0 mm 0.00 in0.0 mm 0.00 in0.0 mm
05:55 AM 77.8°F25.4°C 62.7°F17.1°C 60% 5.0 mph SW8.0 kmh SW 9.0 mph14.5 kmh 30.10 in1019.3 mb 0.00 in0.0 mm 0.00 in0.0 mm 0.00 in0.0 mm
05:50 AM 77.7°F25.4°C 62.6°F17.0°C 60% 6.0 mph W9.7 kmh W 10.0 mph16.1 kmh 30.10 in1019.3 mb 0.00 in0.0 mm 0.00 in0.0 mm 0.00 in0.0 mm
05:45 AM 77.5°F25.3°C 62.9°F17.2°C 61% 4.0 mph WSW6.4 kmh WSW 9.0 mph14.5 kmh 30.10 in1019.3 mb 0.00 in0.0 mm 0.00 in0.0 mm 0.00 in0.0 mm
05:40 AM 77.1°F25.1°C 62.5°F16.9°C 61% 8.0 mph WSW12.9 kmh WSW 10.0 mph16.1 kmh 30.10 in1019.3 mb 0.00 in0.0 mm 0.00 in0.0 mm 0.00 in0.0 mm
05:35 AM 76.8°F24.9°C 62.7°F17.1°C 62% 10.0 mph WSW16.1 kmh WSW 9.0 mph14.5 kmh 30.10 in1019.3 mb 0.00 in0.0 mm 0.00 in0.0 mm 0.00 in0.0 mm
05:30 AM 76.7°F24.8°C 62.6°F17.0°C 62% 5.0 mph WSW8.0 kmh WSW 9.0 mph14.5 kmh 30.10 in1019.3 mb 0.00 in0.0 mm 0.00 in0.0 mm 0.00 in0.0 mm
05:25 AM 76.6°F24.8°C 62.5°F16.9°C 62% 5.0 mph WSW8.0 kmh WSW 9.0 mph14.5 kmh 30.10 in1019.3 mb 0.00 in0.0 mm 0.00 in0.0 mm 0.00 in0.0 mm
05:20 AM 76.4°F24.7°C 62.8°F17.1°C 63% 6.0 mph WSW9.7 kmh WSW 9.0 mph14.5 kmh 30.10 in1019.3 mb 0.00 in0.0 mm 0.00 in0.0 mm 0.00 in0.0 mm
05:15 AM 76.3°F24.6°C 62.7°F17.1°C 63% 6.0 mph WSW9.7 kmh WSW 8.0 mph12.9 kmh 30.09 in1019.0 mb 0.00 in0.0 mm 0.00 in0.0 mm 0.00 in0.0 mm
05:10 AM 76.3°F24.6°C 62.7°F17.1°C 63% 5.0 mph WSW8.0 kmh WSW 9.0 mph14.5 kmh 30.09 in1019.0 mb 0.00 in0.0 mm 0.00 in0.0 mm 0.00 in0.0 mm
05:05 AM 76.2°F24.6°C 62.6°F17.0°C 63% 6.0 mph WSW9.7 kmh WSW 8.0 mph12.9 kmh 30.09 in1019.0 mb 0.00 in0.0 mm 0.00 in0.0 mm 0.00 in0.0 mm
05:00 AM 76.1°F24.5°C 62.5°F16.9°C 63% 4.0 mph WSW6.4 kmh WSW 8.0 mph12.9 kmh 30.09 in1019.0 mb 0.00 in0.0 mm 0.00 in0.0 mm 0.00 in0.0 mm
04:55 AM 75.8°F24.3°C 62.7°F17.1°C 64% 4.0 mph WSW6.4 kmh WSW 10.0 mph16.1 kmh 30.09 in1019.0 mb 0.00 in0.0 mm 0.00 in0.0 mm 0.00 in0.0 mm
04:50 AM 75.7°F24.3°C 62.6°F17.0°C 64% 7.0 mph W11.3 kmh W 9.0 mph14.5 kmh 30.09 in1019.0 mb 0.00 in0.0 mm 0.00 in0.0 mm 0.00 in0.0 mm
04:45 AM 75.7°F24.3°C 62.6°F17.0°C 64% 6.0 mph WSW9.7 kmh WSW 8.0 mph12.9 kmh 30.10 in1019.3 mb 0.00 in0.0 mm 0.00 in0.0 mm 0.00 in0.0 mm
04:40 AM 75.9°F24.4°C 62.8°F17.1°C 64% 6.0 mph WSW9.7 kmh WSW 8.0 mph12.9 kmh 30.10 in1019.3 mb 0.00 in0.0 mm 0.00 in0.0 mm 0.00 in0.0 mm
04:35 AM 76.0°F24.4°C 62.9°F17.2°C 64% 5.0 mph WSW8.0 kmh WSW 7.0 mph11.3 kmh 30.10 in1019.3 mb 0.00 in0.0 mm 0.00 in0.0 mm 0.00 in0.0 mm
04:30 AM 76.1°F24.5°C 62.5°F16.9°C 63% 6.0 mph WSW9.7 kmh WSW 7.0 mph11.3 kmh 30.10 in1019.3 mb 0.00 in0.0 mm 0.00 in0.0 mm 0.00 in0.0 mm
04:25 AM 76.2°F24.6°C 62.6°F17.0°C 63% 6.0 mph SW9.7 kmh SW 8.0 mph12.9 kmh 30.10 in1019.3 mb 0.00 in0.0 mm 0.00 in0.0 mm 0.00 in0.0 mm
04:20 AM 76.1°F24.5°C 63.0°F17.2°C 64% 3.0 mph WSW4.8 kmh WSW 8.0 mph12.9 kmh 30.10 in1019.3 mb 0.00 in0.0 mm 0.00 in0.0 mm 0.00 in0.0 mm
04:15 AM 75.8°F24.3°C 62.7°F17.1°C 64% 5.0 mph W8.0 kmh W 8.0 mph12.9 kmh 30.10 in1019.3 mb 0.00 in0.0 mm 0.00 in0.0 mm 0.00 in0.0 mm
04:10 AM 75.5°F24.2°C 62.8°F17.1°C 65% 6.0 mph W9.7 kmh W 9.0 mph14.5 kmh 30.10 in1019.3 mb 0.00 in0.0 mm 0.00 in0.0 mm 0.00 in0.0 mm
04:05 AM 75.5°F24.2°C 62.8°F17.1°C 65% 6.0 mph W9.7 kmh W 7.0 mph11.3 kmh 30.10 in1019.3 mb 0.00 in0.0 mm 0.00 in0.0 mm 0.00 in0.0 mm
04:00 AM 75.6°F24.2°C 62.9°F17.2°C 65% 4.0 mph WSW6.4 kmh WSW 7.0 mph11.3 kmh 30.10 in1019.3 mb 0.00 in0.0 mm 0.00 in0.0 mm 0.00 in0.0 mm
03:55 AM 75.6°F24.2°C 62.9°F17.2°C 65% 4.0 mph WSW6.4 kmh WSW 6.0 mph9.7 kmh 30.10 in1019.3 mb 0.00 in0.0 mm 0.00 in0.0 mm 0.00 in0.0 mm
03:50 AM 75.7°F24.3°C 63.0°F17.2°C 65% 3.0 mph W4.8 kmh W 7.0 mph11.3 kmh 30.10 in1019.3 mb 0.00 in0.0 mm 0.00 in0.0 mm 0.00 in0.0 mm
03:45 AM 76.1°F24.5°C 63.0°F17.2°C 64% 5.0 mph WNW8.0 kmh WNW 10.0 mph16.1 kmh 30.09 in1019.0 mb 0.00 in0.0 mm 0.00 in0.0 mm 0.00 in0.0 mm
03:40 AM 76.3°F24.6°C 63.2°F17.3°C 64% 7.0 mph W11.3 kmh W 9.0 mph14.5 kmh 30.10 in1019.3 mb 0.00 in0.0 mm 0.00 in0.0 mm 0.00 in0.0 mm
03:35 AM 76.5°F24.7°C 62.9°F17.2°C 63% 5.0 mph NW8.0 kmh NW 11.0 mph17.7 kmh 30.10 in1019.3 mb 0.00 in0.0 mm 0.00 in0.0 mm 0.00 in0.0 mm
03:30 AM 76.4°F24.7°C 63.3°F17.4°C 64% 4.0 mph W6.4 kmh W 8.0 mph12.9 kmh 30.09 in1019.0 mb 0.00 in0.0 mm 0.00 in0.0 mm 0.00 in0.0 mm
03:25 AM 76.3°F24.6°C 63.2°F17.3°C 64% 5.0 mph WSW8.0 kmh WSW 9.0 mph14.5 kmh 30.09 in1019.0 mb 0.00 in0.0 mm 0.00 in0.0 mm 0.00 in0.0 mm
03:20 AM 76.3°F24.6°C 63.2°F17.3°C 64% 4.0 mph WSW6.4 kmh WSW 9.0 mph14.5 kmh 30.09 in1019.0 mb 0.00 in0.0 mm 0.00 in0.0 mm 0.00 in0.0 mm
03:15 AM 76.5°F24.7°C 63.3°F17.4°C 64% 3.0 mph WSW4.8 kmh WSW 9.0 mph14.5 kmh 30.10 in1019.3 mb 0.00 in0.0 mm 0.00 in0.0 mm 0.00 in0.0 mm
03:10 AM 76.7°F24.8°C 63.5°F17.5°C 64% 6.0 mph W9.7 kmh W 9.0 mph14.5 kmh 30.10 in1019.3 mb 0.00 in0.0 mm 0.00 in0.0 mm 0.00 in0.0 mm
03:05 AM 76.7°F24.8°C 63.5°F17.5°C 64% 6.0 mph WSW9.7 kmh WSW 10.0 mph16.1 kmh 30.10 in1019.3 mb 0.00 in0.0 mm 0.00 in0.0 mm 0.00 in0.0 mm
03:00 AM 76.6°F24.8°C 63.9°F17.7°C 65% 10.0 mph WSW16.1 kmh WSW 9.0 mph14.5 kmh 30.10 in1019.3 mb 0.00 in0.0 mm 0.00 in0.0 mm 0.00 in0.0 mm
02:55 AM 76.7°F24.8°C 64.0°F17.8°C 65% 5.0 mph W8.0 kmh W 9.0 mph14.5 kmh 30.10 in1019.3 mb 0.00 in0.0 mm 0.00 in0.0 mm 0.00 in0.0 mm
02:50 AM 77.0°F25.0°C 63.8°F17.7°C 64% 8.0 mph WSW12.9 kmh WSW 9.0 mph14.5 kmh 30.10 in1019.3 mb 0.00 in0.0 mm 0.00 in0.0 mm 0.00 in0.0 mm
02:45 AM 77.2°F25.1°C 64.0°F17.8°C 64% 7.0 mph WSW11.3 kmh WSW 10.0 mph16.1 kmh 30.10 in1019.3 mb 0.00 in0.0 mm 0.00 in0.0 mm 0.00 in0.0 mm
02:40 AM 77.4°F25.2°C 64.2°F17.9°C 64% 5.0 mph W8.0 kmh W 11.0 mph17.7 kmh 30.10 in1019.3 mb 0.00 in0.0 mm 0.00 in0.0 mm 0.00 in0.0 mm
02:35 AM 77.4°F25.2°C 64.2°F17.9°C 64% 7.0 mph WSW11.3 kmh WSW 10.0 mph16.1 kmh 30.10 in1019.3 mb 0.00 in0.0 mm 0.00 in0.0 mm 0.00 in0.0 mm
02:30 AM 77.3°F25.2°C 64.1°F17.8°C 64% 5.0 mph WSW8.0 kmh WSW 11.0 mph17.7 kmh 30.10 in1019.3 mb 0.00 in0.0 mm 0.00 in0.0 mm 0.00 in0.0 mm
02:25 AM 77.1°F25.1°C 64.4°F18.0°C 65% 10.0 mph W16.1 kmh W 11.0 mph17.7 kmh 30.10 in1019.3 mb 0.00 in0.0 mm 0.00 in0.0 mm 0.00 in0.0 mm
02:20 AM 77.0°F25.0°C 64.3°F17.9°C 65% 9.0 mph WSW14.5 kmh WSW 10.0 mph16.1 kmh 30.10 in1019.3 mb 0.00 in0.0 mm 0.00 in0.0 mm 0.00 in0.0 mm
02:15 AM 77.0°F25.0°C 64.3°F17.9°C 65% 8.0 mph W12.9 kmh W 11.0 mph17.7 kmh 30.10 in1019.3 mb 0.00 in0.0 mm 0.00 in0.0 mm 0.00 in0.0 mm
02:10 AM 77.1°F25.1°C 64.4°F18.0°C 65% 5.0 mph WSW8.0 kmh WSW 9.0 mph14.5 kmh 30.10 in1019.3 mb 0.00 in0.0 mm 0.00 in0.0 mm 0.00 in0.0 mm
02:05 AM 77.1°F25.1°C 64.4°F18.0°C 65% 8.0 mph WSW12.9 kmh WSW 8.0 mph12.9 kmh 30.10 in1019.3 mb 0.00 in0.0 mm 0.00 in0.0 mm 0.00 in0.0 mm
02:00 AM 77.2°F25.1°C 64.5°F18.1°C 65% 4.0 mph W6.4 kmh W 11.0 mph17.7 kmh 30.10 in1019.3 mb 0.00 in0.0 mm 0.00 in0.0 mm 0.00 in0.0 mm
01:55 AM 77.3°F25.2°C 64.1°F17.8°C 64% 4.0 mph W6.4 kmh W 11.0 mph17.7 kmh 30.10 in1019.3 mb 0.00 in0.0 mm 0.00 in0.0 mm 0.00 in0.0 mm
01:50 AM 77.1°F25.1°C 64.4°F18.0°C 65% 8.0 mph WSW12.9 kmh WSW 11.0 mph17.7 kmh 30.10 in1019.3 mb 0.00 in0.0 mm 0.00 in0.0 mm 0.00 in0.0 mm
01:45 AM 77.0°F25.0°C 64.3°F17.9°C 65% 7.0 mph WSW11.3 kmh WSW 10.0 mph16.1 kmh 30.10 in1019.3 mb 0.00 in0.0 mm 0.00 in0.0 mm 0.00 in0.0 mm
01:40 AM 77.0°F25.0°C 64.3°F17.9°C 65% 7.0 mph W11.3 kmh W 10.0 mph16.1 kmh 30.10 in1019.3 mb 0.00 in0.0 mm 0.00 in0.0 mm 0.00 in0.0 mm
01:35 AM 77.1°F25.1°C 64.4°F18.0°C 65% 4.0 mph WSW6.4 kmh WSW 11.0 mph17.7 kmh 30.10 in1019.3 mb 0.00 in0.0 mm 0.00 in0.0 mm 0.00 in0.0 mm
01:30 AM 76.9°F24.9°C 64.2°F17.9°C 65% 10.0 mph WSW16.1 kmh WSW 10.0 mph16.1 kmh 30.10 in1019.3 mb 0.00 in0.0 mm 0.00 in0.0 mm 0.00 in0.0 mm
01:25 AM 76.6°F24.8°C 64.3°F17.9°C 66% 8.0 mph WSW12.9 kmh WSW 9.0 mph14.5 kmh 30.10 in1019.3 mb 0.00 in0.0 mm 0.00 in0.0 mm 0.00 in0.0 mm
01:20 AM 76.6°F24.8°C 64.3°F17.9°C 66% 8.0 mph WSW12.9 kmh WSW 11.0 mph17.7 kmh 30.10 in1019.3 mb 0.00 in0.0 mm 0.00 in0.0 mm 0.00 in0.0 mm
01:15 AM 76.6°F24.8°C 64.3°F17.9°C 66% 5.0 mph WSW8.0 kmh WSW 12.0 mph19.3 kmh 30.10 in1019.3 mb 0.00 in0.0 mm 0.00 in0.0 mm 0.00 in0.0 mm
01:10 AM 76.6°F24.8°C 64.3°F17.9°C 66% 8.0 mph WSW12.9 kmh WSW 12.0 mph19.3 kmh 30.10 in1019.3 mb 0.00 in0.0 mm 0.00 in0.0 mm 0.00 in0.0 mm
01:05 AM 76.5°F24.7°C 64.2°F17.9°C 66% 8.0 mph W12.9 kmh W 11.0 mph17.7 kmh 30.10 in1019.3 mb 0.00 in0.0 mm 0.00 in0.0 mm 0.00 in0.0 mm
01:00 AM 76.5°F24.7°C 64.2°F17.9°C 66% 10.0 mph W16.1 kmh W 12.0 mph19.3 kmh 30.11 in1019.6 mb 0.00 in0.0 mm 0.00 in0.0 mm 0.00 in0.0 mm
12:55 AM 76.5°F24.7°C 64.2°F17.9°C 66% 9.0 mph WSW14.5 kmh WSW 12.0 mph19.3 kmh 30.11 in1019.6 mb 0.00 in0.0 mm 0.00 in0.0 mm 0.00 in0.0 mm
12:50 AM 76.4°F24.7°C 64.1°F17.8°C 66% 9.0 mph WSW14.5 kmh WSW 13.0 mph20.9 kmh 30.11 in1019.6 mb 0.00 in0.0 mm 0.00 in0.0 mm 0.00 in0.0 mm
12:45 AM 76.2°F24.6°C 64.4°F18.0°C 67% 8.0 mph W12.9 kmh W 11.0 mph17.7 kmh 30.11 in1019.6 mb 0.00 in0.0 mm 0.00 in0.0 mm 0.00 in0.0 mm
12:40 AM 76.0°F24.4°C 64.6°F18.1°C 68% 6.0 mph W9.7 kmh W 11.0 mph17.7 kmh 30.11 in1019.6 mb 0.00 in0.0 mm 0.00 in0.0 mm 0.00 in0.0 mm
12:35 AM 76.1°F24.5°C 64.7°F18.2°C 68% 5.0 mph WSW8.0 kmh WSW 10.0 mph16.1 kmh 30.11 in1019.6 mb 0.00 in0.0 mm 0.00 in0.0 mm 0.00 in0.0 mm
12:30 AM 76.3°F24.6°C 64.9°F18.3°C 68% 5.0 mph W8.0 kmh W 11.0 mph17.7 kmh 30.11 in1019.6 mb 0.00 in0.0 mm 0.00 in0.0 mm 0.00 in0.0 mm
12:25 AM 76.4°F24.7°C 65.0°F18.3°C 68% 2.0 mph SW3.2 kmh SW 10.0 mph16.1 kmh 30.12 in1020.0 mb 0.00 in0.0 mm 0.00 in0.0 mm 0.00 in0.0 mm
12:20 AM 76.4°F24.7°C 65.4°F18.6°C 69% 9.0 mph WSW14.5 kmh WSW 9.0 mph14.5 kmh 30.12 in1020.0 mb 0.00 in0.0 mm 0.00 in0.0 mm 0.00 in0.0 mm
12:15 AM 76.5°F24.7°C 65.5°F18.6°C 69% 5.0 mph WSW8.0 kmh WSW 8.0 mph12.9 kmh 30.12 in1020.0 mb 0.00 in0.0 mm 0.00 in0.0 mm 0.00 in0.0 mm
12:10 AM 76.4°F24.7°C 65.4°F18.6°C 69% 4.0 mph WSW6.4 kmh WSW 9.0 mph14.5 kmh 30.12 in1020.0 mb 0.00 in0.0 mm 0.00 in0.0 mm 0.00 in0.0 mm
12:05 AM 76.4°F24.7°C 65.8°F18.8°C 70% 6.0 mph W9.7 kmh W 9.0 mph14.5 kmh 30.12 in1020.0 mb 0.00 in0.0 mm 0.00 in0.0 mm 0.00 in0.0 mm
12:00 AM 76.4°F24.7°C 65.8°F18.8°C 70% 2.0 mph WSW3.2 kmh WSW 10.0 mph16.1 kmh 30.12 in1020.0 mb 0.00 in0.0 mm 0.00 in0.0 mm 0.00 in0.0 mm